Time;durP1;ratioP1;P1;durP2;ratioP2;P2;SDS_P1;SDS_P2;PMS_P1;PMS_P2;Temp;Humidity;BMP_temperature;BMP_pressure;BME280_temperature;BME280_humidity;BME280_pressure;Samples;Min_cycle;Max_cycle;Signal;HPM_P1;HPM_P2
2022/12/28 00:01:11;;;;;;;2.80;1.80;;;2.90;99.90;;;;;;5009564;28;20404;-73
2022/12/28 00:03:37;;;;;;;2.50;1.67;;;3.00;99.90;;;;;;5017061;23;20445;-72
2022/12/28 00:06:04;;;;;;;2.00;1.70;;;3.00;99.90;;;;;;4990180;28;20378;-72
2022/12/28 00:08:30;;;;;;;2.95;1.90;;;3.00;99.90;;;;;;4990013;28;20422;-72
2022/12/28 00:11:06;;;;;;;1.60;1.50;;;2.90;99.90;;;;;;4990229;28;20457;-71
2022/12/28 00:13:33;;;;;;;2.80;1.98;;;2.90;99.90;;;;;;4988618;28;20410;-71
2022/12/28 00:16:06;;;;;;;2.72;1.42;;;2.90;99.90;;;;;;4990017;28;20398;-71
2022/12/28 00:18:36;;;;;;;2.10;1.63;;;2.90;99.90;;;;;;4990017;28;20486;-72
2022/12/28 00:21:02;;;;;;;2.00;1.40;;;2.90;99.90;;;;;;4993695;28;20387;-72
2022/12/28 00:23:28;;;;;;;2.22;1.40;;;3.00;99.90;;;;;;4998655;28;20422;-72
2022/12/28 00:25:54;;;;;;;1.60;1.50;;;3.10;99.90;;;;;;4993241;28;20405;-72
2022/12/28 00:28:19;;;;;;;1.45;1.30;;;3.10;99.90;;;;;;4993395;28;20398;-72
2022/12/28 00:30:45;;;;;;;3.25;1.58;;;3.10;99.90;;;;;;4992010;28;20450;-72
2022/12/28 00:33:11;;;;;;;2.40;1.30;;;3.10;99.90;;;;;;4992425;28;20398;-72
2022/12/28 00:35:36;;;;;;;2.57;2.00;;;3.10;99.90;;;;;;4993316;28;20480;-72
2022/12/28 00:38:02;;;;;;;3.80;1.40;;;3.20;99.90;;;;;;4993164;28;20410;-70
2022/12/28 00:40:27;;;;;;;2.77;1.43;;;3.10;99.90;;;;;;4993273;28;20409;-71
2022/12/28 00:42:53;;;;;;;2.70;1.40;;;3.20;99.90;;;;;;4992021;28;20753;-71
2022/12/28 00:45:18;;;;;;;1.35;1.17;;;3.20;99.90;;;;;;4992832;28;20457;-71
2022/12/28 00:47:44;;;;;;;1.50;1.15;;;3.10;99.90;;;;;;4993124;28;20417;-71
2022/12/28 00:50:09;;;;;;;1.70;1.15;;;3.10;99.90;;;;;;4992921;28;20397;-71
2022/12/28 00:52:35;;;;;;;1.52;1.20;;;3.20;99.90;;;;;;4992162;28;20386;-71
2022/12/28 00:55:00;;;;;;;1.90;0.90;;;3.20;99.90;;;;;;4993013;28;20452;-72
2022/12/28 00:57:26;;;;;;;1.42;1.13;;;3.20;99.90;;;;;;4991343;28;20413;-72
2022/12/28 00:59:51;;;;;;;1.80;1.45;;;3.20;99.90;;;;;;4990049;28;20403;-72
2022/12/28 01:02:17;;;;;;;1.70;1.10;;;3.20;99.90;;;;;;4992520;28;20397;-72
2022/12/28 01:04:42;;;;;;;3.00;1.20;;;3.30;99.90;;;;;;4994374;28;21114;-72
2022/12/28 01:07:08;;;;;;;1.37;1.20;;;3.40;99.90;;;;;;4991179;28;20390;-72
2022/12/28 01:09:33;;;;;;;1.90;1.10;;;3.50;99.90;;;;;;4992008;28;20425;-72
2022/12/28 01:11:59;;;;;;;3.37;1.00;;;3.40;99.90;;;;;;4990611;28;20999;-71
2022/12/28 01:14:24;;;;;;;1.10;1.00;;;3.40;99.90;;;;;;4989931;28;20408;-71
2022/12/28 01:16:50;;;;;;;1.27;1.17;;;3.30;99.90;;;;;;4990632;28;20885;-72
2022/12/28 01:19:19;;;;;;;1.30;1.20;;;3.50;99.90;;;;;;4990859;28;20383;-72
2022/12/28 01:21:48;;;;;;;1.50;1.40;;;3.50;99.90;;;;;;4990868;28;20394;-72
2022/12/28 01:24:13;;;;;;;2.60;1.52;;;3.50;99.90;;;;;;4989935;28;20391;-72
2022/12/28 01:26:39;;;;;;;3.03;1.58;;;3.50;99.90;;;;;;4992447;28;20383;-72
2022/12/28 01:29:04;;;;;;;2.22;1.45;;;3.50;99.90;;;;;;4991779;28;20402;-72
2022/12/28 01:31:30;;;;;;;1.13;0.98;;;3.50;99.90;;;;;;4991441;28;20426;-72
2022/12/28 01:33:56;;;;;;;0.73;0.73;;;3.50;99.90;;;;;;4991494;28;20761;-71
2022/12/28 01:36:24;;;;;;;1.40;0.80;;;3.50;99.90;;;;;;4992354;28;20398;-72
2022/12/28 01:38:54;;;;;;;1.58;1.10;;;3.50;99.90;;;;;;4992085;28;20461;-72
2022/12/28 01:41:20;;;;;;;1.27;0.90;;;3.50;99.90;;;;;;4992152;28;20390;-72
2022/12/28 01:43:52;;;;;;;3.10;0.73;;;3.50;99.90;;;;;;4991102;28;20473;-72
2022/12/28 01:46:29;;;;;;;0.80;0.80;;;3.60;99.90;;;;;;4992052;28;20390;-72
2022/12/28 01:49:26;;;;;;;1.67;0.82;;;3.50;99.90;;;;;;4991892;28;20729;-72
2022/12/28 01:52:09;;;;;;;1.20;0.70;;;3.50;99.90;;;;;;4991632;28;20459;-72
2022/12/28 01:54:40;;;;;;;1.55;0.93;;;3.50;99.90;;;;;;4990799;28;20409;-72
2022/12/28 01:57:06;;;;;;;1.95;1.17;;;3.50;99.90;;;;;;4991749;28;20413;-72
2022/12/28 01:59:34;;;;;;;2.20;0.90;;;3.60;99.90;;;;;;4991762;28;20394;-72
2022/12/28 02:02:00;;;;;;;1.45;0.70;;;3.70;99.90;;;;;;4991997;28;20450;-72
2022/12/28 02:04:26;;;;;;;2.42;1.20;;;3.70;99.90;;;;;;4985880;28;20437;-71
2022/12/28 02:06:53;;;;;;;1.10;0.80;;;3.60;99.90;;;;;;4991594;28;20905;-72
2022/12/28 02:09:26;;;;;;;2.07;0.80;;;3.60;99.90;;;;;;4991449;28;20877;-72
2022/12/28 02:11:52;;;;;;;1.70;0.90;;;3.70;99.90;;;;;;4991326;28;20402;-72
2022/12/28 02:14:19;;;;;;;2.30;1.10;;;3.80;99.90;;;;;;4990432;28;20418;-72
2022/12/28 02:16:45;;;;;;;1.00;0.80;;;3.80;99.90;;;;;;4991270;28;20421;-72
2022/12/28 02:19:15;;;;;;;1.43;0.80;;;3.80;99.90;;;;;;4991310;28;20805;-72
2022/12/28 02:22:02;;;;;;;1.30;0.90;;;3.80;99.90;;;;;;4991767;28;20896;-72
2022/12/28 02:24:49;;;;;;;1.20;0.80;;;3.90;99.90;;;;;;4990541;28;20383;-72
2022/12/28 02:27:51;;;;;;;1.43;1.07;;;3.90;99.90;;;;;;4991371;28;20410;-72
2022/12/28 02:30:18;;;;;;;1.73;0.93;;;4.00;99.90;;;;;;4972070;28;20450;-72
2022/12/28 02:32:52;;;;;;;2.20;1.25;;;4.00;99.90;;;;;;4990197;28;20399;-72
2022/12/28 02:35:31;;;;;;;1.50;1.00;;;4.00;99.90;;;;;;4990950;28;20394;-72
2022/12/28 02:38:07;;;;;;;1.38;0.90;;;4.10;99.90;;;;;;4991031;28;20406;-71
2022/12/28 02:41:08;;;;;;;1.33;0.95;;;4.10;99.90;;;;;;4983432;28;20390;-72
2022/12/28 02:43:34;;;;;;;1.63;1.05;;;4.20;99.90;;;;;;4985279;28;20477;-71
2022/12/28 02:52:42;;;;;;;0.95;0.82;;;4.20;99.90;;;;;;4990937;28;20409;-72
2022/12/28 02:58:33;;;;;;;0.70;0.70;;;4.30;99.90;;;;;;4990940;28;20453;-72
2022/12/28 03:01:08;;;;;;;1.45;0.90;;;4.20;99.90;;;;;;4990869;28;20402;-71
2022/12/28 03:03:46;;;;;;;1.35;1.00;;;4.20;99.90;;;;;;4988522;28;20768;-72
2022/12/28 03:09:30;;;;;;;1.30;0.80;;;4.30;99.90;;;;;;4985106;28;20401;-72
2022/12/28 03:12:31;;;;;;;1.93;0.80;;;4.40;99.90;;;;;;4990620;28;20398;-72
2022/12/28 03:15:14;;;;;;;1.27;0.90;;;4.40;99.90;;;;;;4985360;28;20445;-72
2022/12/28 03:31:35;;;;;;;3.78;1.30;;;4.70;99.90;;;;;;4990514;28;20390;-72
2022/12/28 03:34:07;;;;;;;1.63;0.90;;;4.70;99.90;;;;;;4989607;28;20394;-72
2022/12/28 03:36:58;;;;;;;1.48;0.70;;;4.80;99.90;;;;;;4990244;28;20403;-72
2022/12/28 03:39:39;;;;;;;0.95;0.50;;;5.80;99.90;;;;;;4990385;28;20395;-72
2022/12/28 03:45:25;;;;;;;1.20;0.50;;;6.70;99.90;;;;;;4987422;28;20413;-72
2022/12/28 03:47:52;;;;;;;1.50;0.60;;;7.70;99.90;;;;;;4990080;28;20497;-72
2022/12/28 03:50:20;;;;;;;0.82;0.47;;;8.30;99.90;;;;;;4990335;28;20396;-72
2022/12/28 03:52:45;;;;;;;0.70;0.50;;;8.70;97.80;;;;;;4988096;28;20769;-72
2022/12/28 03:55:14;;;;;;;1.30;0.40;;;8.80;97.20;;;;;;4992729;28;20394;-72
2022/12/28 03:57:40;;;;;;;1.77;0.60;;;8.70;97.20;;;;;;4993967;28;20461;-73
2022/12/28 04:00:08;;;;;;;1.70;0.43;;;8.70;96.70;;;;;;4993993;28;20394;-72
2022/12/28 04:02:34;;;;;;;2.50;0.60;;;8.70;97.80;;;;;;4993224;28;20379;-72
2022/12/28 04:04:59;;;;;;;1.30;0.50;;;8.60;97.30;;;;;;4992282;28;20402;-72
2022/12/28 04:07:25;;;;;;;0.60;0.40;;;8.60;97.50;;;;;;4994978;28;20453;-72
2022/12/28 04:09:50;;;;;;;1.97;0.57;;;8.70;97.50;;;;;;4994873;28;20497;-72
2022/12/28 04:12:16;;;;;;;1.20;0.60;;;8.70;97.20;;;;;;4995122;28;20398;-72
2022/12/28 04:14:41;;;;;;;1.70;0.60;;;8.80;96.60;;;;;;4994265;28;20399;-72
2022/12/28 04:17:07;;;;;;;1.10;0.70;;;8.90;96.00;;;;;;4992479;28;20725;-72
2022/12/28 04:19:32;;;;;;;1.50;0.40;;;8.90;94.80;;;;;;4993660;28;20398;-72
2022/12/28 04:21:58;;;;;;;1.00;0.40;;;8.80;95.50;;;;;;4993396;28;20406;-72
2022/12/28 04:24:23;;;;;;;0.70;0.57;;;8.80;96.00;;;;;;4992570;28;20391;-72
2022/12/28 04:26:49;;;;;;;2.30;0.70;;;8.70;96.00;;;;;;4993342;28;20395;-72
2022/12/28 04:29:14;;;;;;;2.70;0.60;;;8.70;96.70;;;;;;4993206;28;20518;-72
2022/12/28 04:31:39;;;;;;;2.70;0.70;;;8.90;95.20;;;;;;4993509;28;20448;-72
2022/12/28 04:34:05;;;;;;;0.90;0.50;;;8.90;95.80;;;;;;4993211;28;20401;-72
2022/12/28 04:36:31;;;;;;;0.63;0.40;;;8.80;95.40;;;;;;4993864;28;20379;-72
2022/12/28 04:38:58;;;;;;;1.25;0.52;;;8.70;95.80;;;;;;4993874;28;20403;-72
2022/12/28 04:41:23;;;;;;;1.30;0.60;;;8.70;96.10;;;;;;4993453;28;20394;-73
2022/12/28 04:43:49;;;;;;;1.50;0.60;;;8.70;96.70;;;;;;4992870;28;20888;-73
2022/12/28 04:46:17;;;;;;;1.30;0.50;;;8.80;96.60;;;;;;4993595;28;20398;-73
2022/12/28 04:48:43;;;;;;;1.77;0.50;;;8.70;96.70;;;;;;4993694;28;20994;-73
2022/12/28 04:51:29;;;;;;;2.63;0.53;;;8.80;96.30;;;;;;4993615;28;20386;-72
2022/12/28 04:53:55;;;;;;;1.25;0.50;;;8.60;97.60;;;;;;4992622;28;20399;-73
2022/12/28 04:56:22;;;;;;;0.90;0.60;;;8.70;96.10;;;;;;4993060;28;20398;-73
2022/12/28 04:58:52;;;;;;;1.80;0.60;;;8.80;95.90;;;;;;4993425;28;20489;-73
2022/12/28 05:01:18;;;;;;;0.77;0.50;;;8.70;96.90;;;;;;4993412;28;20861;-72
2022/12/28 05:03:45;;;;;;;0.80;0.80;;;8.60;97.60;;;;;;4992448;28;20446;-72
2022/12/28 05:06:13;;;;;;;1.35;0.70;;;8.60;97.30;;;;;;4992197;28;20382;-73
2022/12/28 05:08:39;;;;;;;1.30;0.68;;;8.60;97.00;;;;;;4992941;28;20410;-72
2022/12/28 05:11:08;;;;;;;0.90;0.70;;;8.60;96.80;;;;;;4992981;28;20394;-72
2022/12/28 05:13:34;;;;;;;1.30;0.60;;;8.70;96.20;;;;;;4992329;28;20425;-72
2022/12/28 05:16:05;;;;;;;0.87;0.50;;;8.60;97.00;;;;;;4993189;28;20430;-72
2022/12/28 05:18:30;;;;;;;2.88;0.57;;;8.70;96.10;;;;;;4993066;28;20411;-72
2022/12/28 05:21:06;;;;;;;1.67;0.60;;;8.60;96.80;;;;;;4992694;28;20417;-73
2022/12/28 05:23:33;;;;;;;0.90;0.50;;;8.50;98.20;;;;;;4992230;28;20508;-72
2022/12/28 05:25:59;;;;;;;1.30;0.40;;;8.50;98.30;;;;;;4992760;28;20398;-72
2022/12/28 05:28:25;;;;;;;2.80;0.60;;;8.60;97.50;;;;;;4992875;28;20517;-72
2022/12/28 05:30:51;;;;;;;2.35;0.70;;;8.70;97.40;;;;;;4992846;28;20390;-72
2022/12/28 05:33:18;;;;;;;1.00;0.60;;;8.60;97.50;;;;;;4992069;28;20394;-72
2022/12/28 05:35:44;;;;;;;2.40;0.70;;;8.40;99.00;;;;;;4992725;28;20390;-72
2022/12/28 05:38:09;;;;;;;0.60;0.60;;;8.50;98.70;;;;;;4992443;28;20414;-72
2022/12/28 05:40:35;;;;;;;1.93;0.50;;;8.40;99.20;;;;;;4992466;28;20386;-72
2022/12/28 05:43:00;;;;;;;0.77;0.50;;;8.50;98.70;;;;;;4991169;28;20473;-72
2022/12/28 05:45:26;;;;;;;1.17;0.90;;;8.40;99.90;;;;;;4992027;28;20762;-72
2022/12/28 05:47:53;;;;;;;1.15;0.73;;;8.40;99.60;;;;;;4992602;28;20444;-72
2022/12/28 05:50:19;;;;;;;1.20;0.70;;;8.50;98.70;;;;;;4992381;28;20460;-72
2022/12/28 05:52:45;;;;;;;1.90;0.80;;;8.60;97.80;;;;;;4991286;28;20410;-72
2022/12/28 05:55:10;;;;;;;1.60;0.57;;;8.50;98.40;;;;;;4991959;28;20402;-72
2022/12/28 05:57:36;;;;;;;0.70;0.50;;;8.30;99.90;;;;;;4992049;28;20514;-73
2022/12/28 06:00:02;;;;;;;1.10;0.77;;;8.50;98.80;;;;;;4991379;28;20405;-73
2022/12/28 06:02:28;;;;;;;1.90;1.40;;;8.40;99.90;;;;;;4991648;28;20387;-73
2022/12/28 06:04:53;;;;;;;1.92;0.90;;;8.30;99.90;;;;;;4996118;22;20784;-73
2022/12/28 06:07:19;;;;;;;1.90;1.00;;;8.40;98.20;;;;;;4972925;28;20775;-73
2022/12/28 06:09:45;;;;;;;1.48;0.60;;;8.60;97.10;;;;;;4973947;28;20396;-73
2022/12/28 06:12:11;;;;;;;2.70;0.50;;;8.60;96.80;;;;;;4971363;28;20407;-74
2022/12/28 06:14:36;;;;;;;1.77;0.70;;;8.50;98.80;;;;;;4972042;28;20887;-73
2022/12/28 06:17:02;;;;;;;1.40;0.50;;;8.40;99.20;;;;;;4972183;28;20529;-73
2022/12/28 06:19:27;;;;;;;1.40;0.50;;;8.60;96.80;;;;;;4972413;28;20423;-73
2022/12/28 06:21:53;;;;;;;1.30;0.60;;;8.70;96.30;;;;;;4972582;28;20875;-74
2022/12/28 06:24:18;;;;;;;1.30;0.53;;;8.60;96.90;;;;;;4983258;28;20414;-73
2022/12/28 06:26:44;;;;;;;0.80;0.60;;;8.60;96.90;;;;;;4991889;28;20389;-74
2022/12/28 06:29:10;;;;;;;1.50;0.55;;;8.80;95.90;;;;;;4991714;28;20382;-73
2022/12/28 06:31:43;;;;;;;0.90;0.50;;;8.80;95.70;;;;;;4991802;28;20509;-74
2022/12/28 06:34:09;;;;;;;0.50;0.50;;;8.80;95.80;;;;;;4990911;28;20398;-74
2022/12/28 06:36:40;;;;;;;1.70;0.60;;;8.90;95.70;;;;;;4980937;28;20439;-73
2022/12/28 06:39:07;;;;;;;0.85;0.50;;;8.90;95.20;;;;;;4974851;28;20406;-73
2022/12/28 06:41:33;;;;;;;0.60;0.50;;;8.80;96.30;;;;;;4972239;28;20870;-73
2022/12/28 06:43:59;;;;;;;2.00;0.68;;;8.70;96.60;;;;;;4969899;28;20440;-73
2022/12/28 06:46:27;;;;;;;2.50;0.87;;;8.80;95.90;;;;;;4972044;28;20523;-72
2022/12/28 06:48:53;;;;;;;1.80;0.53;;;8.70;97.10;;;;;;4972053;28;20456;-72
2022/12/28 06:51:23;;;;;;;0.80;0.50;;;8.80;96.60;;;;;;4978822;28;20398;-73
2022/12/28 06:53:50;;;;;;;1.50;0.70;;;8.90;96.00;;;;;;4971207;28;20391;-73
2022/12/28 06:56:21;;;;;;;1.30;0.50;;;8.80;96.80;;;;;;4971999;28;20451;-73
2022/12/28 06:58:48;;;;;;;0.60;0.50;;;8.70;98.00;;;;;;4978631;28;20494;-73
2022/12/28 07:01:17;;;;;;;1.40;0.50;;;8.70;98.10;;;;;;4971701;28;20459;-73
2022/12/28 07:03:45;;;;;;;1.00;0.65;;;8.70;98.20;;;;;;4969814;28;20414;-73
2022/12/28 07:06:12;;;;;;;1.08;0.80;;;8.60;99.30;;;;;;4971848;28;20447;-73
2022/12/28 07:08:37;;;;;;;1.33;0.50;;;8.40;99.90;;;;;;4967360;28;20417;-72
2022/12/28 07:11:11;;;;;;;1.50;0.60;;;8.30;99.90;;;;;;4975318;28;20403;-73
2022/12/28 07:13:37;;;;;;;1.55;0.50;;;8.40;99.90;;;;;;4990322;28;20398;-72
2022/12/28 07:16:04;;;;;;;2.00;0.60;;;8.70;99.30;;;;;;4978547;28;20408;-73
2022/12/28 07:18:30;;;;;;;2.50;0.70;;;8.60;99.90;;;;;;4970300;28;20495;-73
2022/12/28 07:21:05;;;;;;;0.82;0.50;;;8.80;99.30;;;;;;4971774;28;20471;-74
2022/12/28 07:23:31;;;;;;;0.60;0.40;;;8.80;98.90;;;;;;4970790;28;20905;-73
2022/12/28 07:26:02;;;;;;;1.70;0.57;;;8.80;99.50;;;;;;4970271;28;20420;-73
2022/12/28 07:28:28;;;;;;;3.10;0.50;;;8.70;99.40;;;;;;4952225;28;20394;-73
2022/12/28 07:30:53;;;;;;;1.10;0.50;;;8.60;99.90;;;;;;4956201;28;20392;-74
2022/12/28 07:33:19;;;;;;;1.70;0.80;;;8.50;99.90;;;;;;4956523;28;20408;-73
2022/12/28 07:35:44;;;;;;;2.20;0.70;;;8.70;99.90;;;;;;4961767;28;20568;-73
2022/12/28 07:38:10;;;;;;;1.80;0.80;;;8.80;99.90;;;;;;4975294;28;20906;-74
2022/12/28 07:40:35;;;;;;;0.80;0.68;;;8.80;99.90;;;;;;4975682;28;20404;-74
2022/12/28 07:43:01;;;;;;;1.10;0.80;;;8.60;99.90;;;;;;4976574;28;20400;-73
2022/12/28 07:45:26;;;;;;;0.90;0.60;;;8.50;99.90;;;;;;4975459;28;20396;-74
2022/12/28 07:47:52;;;;;;;0.60;0.40;;;8.40;99.90;;;;;;4975361;28;20474;-74
2022/12/28 07:50:17;;;;;;;1.08;0.80;;;8.50;99.90;;;;;;4975629;28;20392;-74
2022/12/28 07:52:43;;;;;;;1.40;1.00;;;8.40;99.90;;;;;;4974693;28;20396;-74
2022/12/28 07:55:08;;;;;;;0.80;0.50;;;8.50;99.90;;;;;;4975166;28;20762;-74
2022/12/28 07:57:34;;;;;;;0.93;0.60;;;8.90;99.60;;;;;;4974882;28;20427;-74
2022/12/28 07:59:59;;;;;;;1.70;0.80;;;8.80;99.90;;;;;;4973809;28;20400;-74
2022/12/28 08:02:25;;;;;;;1.50;0.70;;;8.70;99.90;;;;;;4979152;28;20388;-74
2022/12/28 08:04:50;;;;;;;1.40;0.80;;;8.70;99.90;;;;;;4978574;28;20403;-74
2022/12/28 08:07:16;;;;;;;2.67;0.70;;;8.70;99.90;;;;;;4977673;28;20806;-74
2022/12/28 08:09:41;;;;;;;1.50;0.70;;;8.70;99.90;;;;;;4987241;28;20405;-74
2022/12/28 08:12:07;;;;;;;1.50;0.80;;;8.80;99.90;;;;;;4990918;28;20431;-73
2022/12/28 08:14:32;;;;;;;2.33;0.75;;;8.80;99.90;;;;;;4973996;28;20487;-74
2022/12/28 08:16:58;;;;;;;1.00;0.63;;;8.70;99.90;;;;;;4974830;28;20419;-74
2022/12/28 08:19:23;;;;;;;1.10;0.60;;;8.70;99.90;;;;;;4974874;28;20905;-71
2022/12/28 08:21:49;;;;;;;1.60;0.77;;;8.60;99.90;;;;;;4974726;28;20391;-74
2022/12/28 08:24:17;;;;;;;1.08;0.70;;;8.70;99.90;;;;;;4973685;28;20451;-73
2022/12/28 08:26:45;;;;;;;1.48;0.60;;;8.90;99.90;;;;;;4974433;28;20385;-74
2022/12/28 08:29:14;;;;;;;1.60;0.57;;;8.90;99.90;;;;;;4974513;28;20388;-73
2022/12/28 08:31:41;;;;;;;1.20;0.40;;;9.00;99.50;;;;;;4978717;28;21069;-74
2022/12/28 08:34:10;;;;;;;1.80;0.50;;;9.30;95.50;;;;;;4992747;28;20464;-74
2022/12/28 08:36:35;;;;;;;0.50;0.40;;;9.50;94.50;;;;;;4994089;28;20486;-74
2022/12/28 08:39:02;;;;;;;1.35;0.77;;;9.40;94.50;;;;;;4987954;28;20454;-73
2022/12/28 08:41:29;;;;;;;1.20;0.50;;;9.20;97.60;;;;;;4974434;28;20736;-74
2022/12/28 08:43:55;;;;;;;0.82;0.40;;;9.50;93.40;;;;;;4973456;28;20391;-74
2022/12/28 08:46:23;;;;;;;2.38;0.70;;;9.60;92.70;;;;;;4974267;28;20389;-73
2022/12/28 08:48:51;;;;;;;1.17;0.50;;;9.50;95.50;;;;;;4974220;28;20875;-74
2022/12/28 08:51:24;;;;;;;0.90;0.52;;;9.50;93.20;;;;;;4976341;28;20399;-73
2022/12/28 08:53:50;;;;;;;2.03;0.50;;;9.60;94.30;;;;;;4973284;28;20403;-73
2022/12/28 08:56:23;;;;;;;1.70;0.90;;;9.70;93.20;;;;;;4974171;28;20755;-74
2022/12/28 08:58:49;;;;;;;0.80;0.40;;;9.50;95.50;;;;;;4974030;28;20770;-74
2022/12/28 09:01:17;;;;;;;1.27;0.80;;;9.70;91.60;;;;;;4974023;28;20388;-73
2022/12/28 09:03:44;;;;;;;0.77;0.43;;;9.60;92.10;;;;;;4973068;28;20493;-75
2022/12/28 09:06:13;;;;;;;0.80;0.40;;;9.90;87.70;;;;;;4987955;28;20465;-74
2022/12/28 09:08:39;;;;;;;0.70;0.40;;;10.00;86.50;;;;;;4987036;28;20862;-73
2022/12/28 09:11:08;;;;;;;1.00;0.50;;;10.00;86.90;;;;;;4974759;28;20921;-73
2022/12/28 09:13:34;;;;;;;0.80;0.50;;;10.10;84.10;;;;;;4973107;28;20396;-73
2022/12/28 09:16:04;;;;;;;1.50;0.70;;;10.10;85.20;;;;;;4974456;28;20400;-74
2022/12/28 09:18:29;;;;;;;0.50;0.40;;;10.10;84.10;;;;;;4973670;28;20910;-74
2022/12/28 09:20:55;;;;;;;1.73;1.00;;;10.20;84.40;;;;;;4973760;28;20507;-73
2022/12/28 09:23:21;;;;;;;1.67;0.70;;;10.00;89.80;;;;;;4977445;28;20440;-74
2022/12/28 09:25:47;;;;;;;0.90;0.40;;;10.00;91.30;;;;;;4992820;28;21052;-74
2022/12/28 09:28:12;;;;;;;1.42;0.40;;;10.00;85.00;;;;;;4993012;28;20399;-74
2022/12/28 09:30:38;;;;;;;0.73;0.55;;;10.30;83.10;;;;;;4993087;28;20397;-74
2022/12/28 09:35:47;;;;;;;1.10;0.40;;;10.50;82.10;;;;;;4991002;28;20777;-74
2022/12/28 09:38:13;;;;;;;1.60;0.90;;;10.50;80.40;;;;;;4982605;28;20412;-73
2022/12/28 09:40:39;;;;;;;1.10;0.50;;;10.50;82.40;;;;;;4973348;28;20512;-74
2022/12/28 09:43:05;;;;;;;1.53;0.47;;;10.60;78.30;;;;;;4972450;28;20397;-74
2022/12/28 09:45:31;;;;;;;1.13;0.67;;;10.70;78.10;;;;;;4973318;28;20870;-74
2022/12/28 09:48:05;;;;;;;0.80;0.50;;;10.60;87.00;;;;;;4973116;28;20411;-73
2022/12/28 09:50:34;;;;;;;1.98;0.80;;;10.60;77.40;;;;;;4988864;28;20409;-72
2022/12/28 09:53:14;;;;;;;1.40;0.40;;;10.60;78.40;;;;;;4988969;28;20416;-73
2022/12/28 09:55:47;;;;;;;0.60;0.50;;;10.70;76.70;;;;;;4991357;28;20406;-73
2022/12/28 09:58:15;;;;;;;0.60;0.40;;;10.80;76.10;;;;;;4972669;28;20438;-72
2022/12/28 10:00:44;;;;;;;1.45;0.70;;;10.80;76.50;;;;;;4972930;28;20582;-73
2022/12/28 10:03:35;;;;;;;0.77;0.60;;;10.70;79.30;;;;;;4971332;28;20389;-71
2022/12/28 10:06:01;;;;;;;3.00;0.70;;;10.80;76.50;;;;;;4987614;28;20421;-73
2022/12/28 10:08:28;;;;;;;1.15;0.60;;;10.70;77.40;;;;;;4972598;28;20403;-73
2022/12/28 10:10:58;;;;;;;0.70;0.40;;;10.80;76.20;;;;;;4972587;28;20411;-73
2022/12/28 10:13:28;;;;;;;0.80;0.60;;;10.90;75.40;;;;;;4971894;28;20403;-73
2022/12/28 10:15:54;;;;;;;1.98;0.63;;;10.80;76.20;;;;;;4972995;28;20871;-73
2022/12/28 10:18:24;;;;;;;1.20;0.60;;;10.80;77.00;;;;;;4979917;28;20414;-73
2022/12/28 10:20:50;;;;;;;0.63;0.40;;;10.70;76.30;;;;;;4976743;28;20948;-73
2022/12/28 10:23:21;;;;;;;1.90;0.60;;;10.80;75.40;;;;;;4970577;28;20418;-73
2022/12/28 10:25:49;;;;;;;0.77;0.50;;;10.80;74.90;;;;;;4972716;28;20384;-73
2022/12/28 10:28:16;;;;;;;0.70;0.60;;;10.90;75.80;;;;;;4972368;28;20778;-73
2022/12/28 10:30:48;;;;;;;2.50;0.50;;;10.90;75.00;;;;;;4971047;28;20488;-73
2022/12/28 10:33:18;;;;;;;0.80;0.50;;;11.00;75.50;;;;;;4971726;28;20395;-73
2022/12/28 10:35:53;;;;;;;0.50;0.40;;;11.00;75.10;;;;;;4974427;28;20404;-75
2022/12/28 10:38:30;;;;;;;1.38;0.43;;;11.20;73.30;;;;;;4972236;28;20431;-72
2022/12/28 10:41:10;;;;;;;0.90;0.60;;;11.00;72.10;;;;;;4972525;28;20803;-74
2022/12/28 10:43:39;;;;;;;0.50;0.40;;;11.10;70.90;;;;;;4964145;28;20376;-72
2022/12/28 10:46:17;;;;;;;0.40;0.30;;;11.20;71.20;;;;;;4972301;28;20448;-72
2022/12/28 10:48:48;;;;;;;0.80;0.50;;;11.10;71.20;;;;;;4972837;28;20870;-73
2022/12/28 10:51:20;;;;;;;1.23;0.50;;;11.00;71.50;;;;;;4972174;28;20396;-72
2022/12/28 10:53:49;;;;;;;1.40;0.40;;;11.00;71.10;;;;;;4971198;28;20806;-73
2022/12/28 10:56:25;;;;;;;0.73;0.50;;;11.00;71.30;;;;;;4972048;28;20392;-73
2022/12/28 10:58:52;;;;;;;0.70;0.50;;;11.00;72.90;;;;;;4961437;28;20902;-74
2022/12/28 11:01:22;;;;;;;1.80;0.50;;;11.00;71.70;;;;;;4970882;28;20401;-74
2022/12/28 11:03:54;;;;;;;1.02;0.55;;;11.00;70.20;;;;;;4970065;28;20783;-72
2022/12/28 11:06:22;;;;;;;0.80;0.40;;;10.90;71.10;;;;;;4952500;29;20394;-74
2022/12/28 11:09:02;;;;;;;3.03;0.50;;;11.00;72.20;;;;;;4959875;28;20759;-73
2022/12/28 11:11:27;;;;;;;0.73;0.50;;;10.90;71.40;;;;;;4971890;28;20890;-73
2022/12/28 11:14:05;;;;;;;1.20;0.63;;;11.00;70.60;;;;;;4970940;28;20392;-73
2022/12/28 11:16:36;;;;;;;1.30;0.50;;;10.90;70.60;;;;;;4971893;28;20475;-74
2022/12/28 11:19:02;;;;;;;3.30;0.70;;;10.90;71.30;;;;;;4989175;28;20414;-74
2022/12/28 11:21:28;;;;;;;1.70;0.60;;;11.00;70.30;;;;;;4991255;28;20430;-74
2022/12/28 11:23:53;;;;;;;0.77;0.50;;;11.00;69.90;;;;;;4988982;28;20845;-74
2022/12/28 11:26:19;;;;;;;1.48;0.70;;;11.10;70.20;;;;;;4989741;28;20390;-72
2022/12/28 11:28:48;;;;;;;0.70;0.50;;;11.00;70.70;;;;;;4991206;28;20393;-74
2022/12/28 11:31:26;;;;;;;1.40;0.60;;;11.00;69.90;;;;;;4973540;28;20455;-73
2022/12/28 11:33:57;;;;;;;1.00;0.60;;;11.10;70.40;;;;;;4970936;28;20479;-74
2022/12/28 11:36:26;;;;;;;1.40;0.65;;;11.10;69.20;;;;;;4971456;28;20847;-73
2022/12/28 11:38:55;;;;;;;1.20;0.55;;;11.50;66.90;;;;;;4971478;28;20408;-73
2022/12/28 11:41:23;;;;;;;1.30;0.40;;;11.50;66.90;;;;;;4966233;28;20396;-73
2022/12/28 11:43:57;;;;;;;0.70;0.50;;;11.30;67.00;;;;;;4970305;28;20396;-73
2022/12/28 11:46:23;;;;;;;1.50;0.50;;;11.20;71.10;;;;;;4971443;28;20380;-74
2022/12/28 11:49:21;;;;;;;1.80;0.50;;;11.40;69.10;;;;;;4971340;28;20859;-74
2022/12/28 11:51:46;;;;;;;1.10;0.60;;;11.50;67.30;;;;;;4971098;28;20479;-74
2022/12/28 11:54:33;;;;;;;1.20;0.50;;;11.40;68.20;;;;;;4981700;28;20465;-74
2022/12/28 11:56:59;;;;;;;0.80;0.60;;;11.50;67.30;;;;;;4971419;28;20416;-73
2022/12/28 11:59:30;;;;;;;0.55;0.45;;;11.50;66.20;;;;;;4984213;28;20402;-74
2022/12/28 12:02:01;;;;;;;1.02;0.45;;;11.30;67.80;;;;;;4969998;28;20418;-73
2022/12/28 12:04:28;;;;;;;1.00;0.40;;;11.50;67.30;;;;;;5009411;23;20440;-74
2022/12/28 12:06:55;;;;;;;0.80;0.50;;;12.10;65.10;;;;;;5007503;28;20903;-73
2022/12/28 12:09:21;;;;;;;2.75;0.60;;;12.60;61.70;;;;;;5006945;28;20582;-74
2022/12/28 12:11:58;;;;;;;1.50;0.40;;;13.30;56.00;;;;;;5009804;28;20447;-75
2022/12/28 12:14:47;;;;;;;1.30;0.50;;;12.90;57.10;;;;;;4980230;28;20443;-75
2022/12/28 12:17:40;;;;;;;1.08;0.40;;;13.10;56.40;;;;;;4992381;28;20505;-76
2022/12/28 12:20:41;;;;;;;0.70;0.60;;;13.30;54.00;;;;;;4993858;28;20796;-75
2022/12/28 12:23:20;;;;;;;1.48;0.50;;;13.40;54.00;;;;;;4987755;28;20509;-75
2022/12/28 12:25:48;;;;;;;1.20;0.45;;;13.30;53.60;;;;;;4994222;28;20555;-75
2022/12/28 12:28:31;;;;;;;0.45;0.30;;;13.30;53.80;;;;;;4993792;28;20386;-75
2022/12/28 12:30:58;;;;;;;1.40;0.50;;;12.90;53.20;;;;;;4993108;28;20399;-74
2022/12/28 12:33:26;;;;;;;0.80;0.50;;;12.50;54.80;;;;;;4993128;28;20422;-74
2022/12/28 12:36:08;;;;;;;0.60;0.50;;;12.40;55.30;;;;;;4993488;28;20905;-75
2022/12/28 12:39:03;;;;;;;0.60;0.43;;;12.40;56.00;;;;;;4994118;28;20414;-75
2022/12/28 12:42:12;;;;;;;0.80;0.60;;;12.20;56.20;;;;;;4975727;28;20394;-74
2022/12/28 12:44:56;;;;;;;1.00;0.60;;;12.20;56.60;;;;;;4992008;28;20382;-75
2022/12/28 12:47:43;;;;;;;1.23;0.50;;;12.00;57.10;;;;;;4976000;28;20398;-75
2022/12/28 12:50:19;;;;;;;0.73;0.50;;;12.10;57.40;;;;;;4993840;28;20900;-75
2022/12/28 12:52:50;;;;;;;0.80;0.50;;;12.20;57.20;;;;;;4992553;28;20412;-75
2022/12/28 12:55:26;;;;;;;1.00;0.60;;;12.20;57.40;;;;;;4993438;28;20398;-75
2022/12/28 12:58:06;;;;;;;1.08;0.50;;;12.20;55.20;;;;;;4993633;28;20493;-74
2022/12/28 13:00:55;;;;;;;1.30;0.50;;;12.30;55.10;;;;;;4994068;28;20390;-75
2022/12/28 13:03:30;;;;;;;0.60;0.50;;;12.30;54.50;;;;;;4975533;28;20394;-75
2022/12/28 13:05:57;;;;;;;1.17;0.50;;;12.20;52.50;;;;;;4993634;28;20848;-75
2022/12/28 13:08:50;;;;;;;0.60;0.60;;;12.20;52.60;;;;;;4993718;28;20414;-76
2022/12/28 13:11:17;;;;;;;1.60;0.70;;;12.20;52.50;;;;;;4992769;28;20422;-75
2022/12/28 13:13:46;;;;;;;1.85;0.60;;;12.20;52.30;;;;;;4992600;28;20900;-74
2022/12/28 13:16:16;;;;;;;1.20;0.50;;;12.20;53.00;;;;;;4993198;28;20390;-74
2022/12/28 13:18:56;;;;;;;1.10;0.70;;;12.10;53.40;;;;;;4993278;28;20441;-74
2022/12/28 13:21:23;;;;;;;2.50;0.90;;;12.10;52.10;;;;;;4992887;28;20493;-74
2022/12/28 13:23:50;;;;;;;1.10;0.60;;;12.00;53.30;;;;;;4992362;28;20813;-74
2022/12/28 13:26:18;;;;;;;0.70;0.60;;;12.00;51.70;;;;;;4992575;28;20406;-74
2022/12/28 13:28:58;;;;;;;2.92;0.82;;;12.10;51.90;;;;;;4991447;28;20405;-74
2022/12/28 13:31:38;;;;;;;1.20;0.60;;;12.20;52.70;;;;;;4975166;28;20438;-75
2022/12/28 13:34:15;;;;;;;1.20;0.60;;;12.20;51.50;;;;;;4971516;28;20396;-74
2022/12/28 13:36:57;;;;;;;0.93;0.60;;;12.30;51.60;;;;;;4973466;28;20407;-75
2022/12/28 13:39:30;;;;;;;0.90;0.70;;;12.40;48.20;;;;;;4973480;28;20399;-75